Time;durP1;ratioP1;P1;durP2;ratioP2;P2;SDS_P1;SDS_P2;PMS_P1;PMS_P2;Temp;Humidity;BMP_temperature;BMP_pressure;BME280_temperature;BME280_humidity;BME280_pressure;Samples;Min_cycle;Max_cycle;Signal;HPM_P1;HPM_P2
2023/03/19 00:02:03;;;;;;;11.68;4.93;;;;;;;7.51;87.01;96960.00;5074347;28;20048;-60
2023/03/19 00:04:43;;;;;;;7.82;4.07;;;;;;;7.51;87.57;96963.53;5074498;28;20044;-60
2023/03/19 00:07:10;;;;;;;6.68;4.15;;;;;;;7.47;87.42;96954.28;5069614;28;20124;-60
2023/03/19 00:09:37;;;;;;;8.27;3.67;;;;;;;7.37;88.66;96952.22;5083246;28;20052;-61
2023/03/19 00:12:04;;;;;;;11.00;4.63;;;;;;;7.35;88.93;96956.22;5065058;28;20090;-61
2023/03/19 00:14:31;;;;;;;7.15;4.10;;;;;;;7.25;88.54;96946.91;5075336;28;20040;-61
2023/03/19 00:16:58;;;;;;;6.72;3.95;;;;;;;7.05;91.11;96941.13;5075466;28;20045;-60
2023/03/19 00:19:25;;;;;;;7.70;4.40;;;;;;;7.11;89.98;96948.25;5077752;28;21529;-60
2023/03/19 00:21:51;;;;;;;8.80;4.60;;;;;;;6.86;91.61;96946.69;5081411;28;20063;-60
2023/03/19 00:24:19;;;;;;;8.52;5.22;;;;;;;6.81;92.11;96947.41;5072301;28;20098;-60
2023/03/19 00:26:46;;;;;;;8.90;4.07;;;;;;;6.84;91.34;96944.25;5068463;28;20037;-60
2023/03/19 00:29:13;;;;;;;10.00;4.78;;;;;;;6.95;91.25;96941.72;5077570;28;20048;-60
2023/03/19 00:31:40;;;;;;;6.43;3.78;;;;;;;7.12;90.73;96942.59;5074490;28;20109;-60
2023/03/19 00:34:08;;;;;;;7.53;4.63;;;;;;;7.15;90.88;96938.66;5074032;28;20028;-60
2023/03/19 00:36:36;;;;;;;9.23;4.97;;;;;;;7.13;90.31;96938.06;5067297;28;20056;-61
2023/03/19 00:39:03;;;;;;;9.18;4.97;;;;;;;7.17;90.56;96939.22;5071363;28;20523;-59
2023/03/19 00:41:31;;;;;;;8.02;5.22;;;;;;;7.24;90.12;96941.75;5077293;28;20048;-60
2023/03/19 00:43:58;;;;;;;7.70;4.45;;;;;;;7.23;90.46;96942.81;5072784;28;20071;-60
2023/03/19 00:46:25;;;;;;;11.55;4.10;;;;;;;7.10;90.72;96947.44;5073694;28;20041;-60
2023/03/19 00:48:54;;;;;;;6.18;3.80;;;;;;;7.12;89.96;96944.50;5078286;28;20549;-59
2023/03/19 00:51:22;;;;;;;9.05;3.65;;;;;;;7.26;89.25;96948.53;5074071;28;20052;-59
2023/03/19 00:53:50;;;;;;;6.45;3.20;;;;;;;7.21;89.71;96951.13;5077372;28;20127;-60
2023/03/19 00:56:18;;;;;;;8.18;4.00;;;;;;;7.31;89.34;96955.06;5079700;28;20415;-60
2023/03/19 00:58:45;;;;;;;7.32;3.70;;;;;;;7.32;89.53;96956.69;5077987;28;20082;-61
2023/03/19 01:01:15;;;;;;;6.97;3.70;;;;;;;7.28;89.56;96954.50;5078489;28;20036;-60
2023/03/19 01:03:43;;;;;;;6.90;3.65;;;;;;;7.34;89.61;96952.69;5075749;28;20036;-60
2023/03/19 01:06:11;;;;;;;7.38;3.60;;;;;;;7.47;88.78;96961.53;5072194;28;20059;-60
2023/03/19 01:08:38;;;;;;;9.20;3.80;;;;;;;7.43;88.96;96958.53;5074765;28;20154;-60
2023/03/19 01:11:11;;;;;;;7.35;3.47;;;;;;;7.39;89.57;96960.91;5065339;28;20048;-60
2023/03/19 01:13:37;;;;;;;7.43;4.05;;;;;;;7.36;89.63;96977.53;5068386;28;20125;-60
2023/03/19 01:16:05;;;;;;;7.82;4.18;;;;;;;7.44;88.18;96984.41;5073940;28;20051;-60
2023/03/19 01:18:32;;;;;;;7.05;3.80;;;;;;;7.65;86.53;96987.47;5062489;28;20044;-61
2023/03/19 01:21:00;;;;;;;7.43;3.92;;;;;;;7.75;85.75;96994.91;5064763;28;20710;-61
2023/03/19 01:23:28;;;;;;;7.60;3.72;;;;;;;7.77;85.61;97000.88;5073044;28;20043;-60
2023/03/19 01:25:56;;;;;;;10.68;4.30;;;;;;;7.80;87.91;97008.47;5076562;28;20071;-60
2023/03/19 01:28:24;;;;;;;7.80;4.03;;;;;;;7.77;88.80;97017.03;5069525;28;20507;-60
2023/03/19 01:30:51;;;;;;;8.38;3.85;;;;;;;7.75;90.72;97025.41;5075948;28;20098;-61
2023/03/19 01:33:37;;;;;;;6.53;3.45;;;;;;;7.83;91.38;97029.56;5075147;28;20086;-60
2023/03/19 01:36:16;;;;;;;12.27;4.57;;;;;;;7.93;93.47;97034.31;5069978;28;20055;-61
2023/03/19 01:39:03;;;;;;;8.45;3.50;;;;;;;8.02;91.98;97030.16;5079171;28;20097;-61
2023/03/19 01:41:29;;;;;;;9.10;3.53;;;;;;;7.91;94.22;97041.81;5079193;28;20033;-61
2023/03/19 01:44:26;;;;;;;7.90;3.90;;;;;;;7.44;100.00;97040.16;5070282;28;20086;-61
2023/03/19 01:47:34;;;;;;;6.63;4.05;;;;;;;7.42;100.00;97041.19;5053564;28;20063;-62
2023/03/19 01:50:37;;;;;;;9.48;4.65;;;;;;;7.18;100.00;97045.03;5068925;28;20569;-61
2023/03/19 01:53:28;;;;;;;10.95;4.00;;;;;;;7.11;100.00;97045.19;5071233;28;20078;-62
2023/03/19 01:56:06;;;;;;;6.82;3.78;;;;;;;7.20;100.00;97035.66;5082346;28;20043;-61
2023/03/19 01:58:42;;;;;;;8.68;4.53;;;;;;;7.25;100.00;97029.56;5074419;28;20048;-62
2023/03/19 02:01:19;;;;;;;6.80;3.30;;;;;;;7.37;100.00;97034.91;5079705;28;20083;-61
2023/03/19 02:03:51;;;;;;;10.07;3.60;;;;;;;7.32;100.00;97032.09;5078961;28;20129;-62
2023/03/19 02:06:24;;;;;;;8.57;3.97;;;;;;;6.91;100.00;97035.59;5075609;28;20521;-62
2023/03/19 02:08:51;;;;;;;7.53;4.15;;;;;;;6.88;100.00;97039.59;5086564;28;20348;-61
2023/03/19 02:11:18;;;;;;;6.88;3.92;;;;;;;6.97;100.00;97025.78;5078603;28;20051;-62
2023/03/19 02:13:45;;;;;;;10.05;3.85;;;;;;;7.10;100.00;97022.81;5073083;28;20040;-62
2023/03/19 02:16:14;;;;;;;8.13;3.72;;;;;;;7.27;100.00;97022.88;5066505;28;20052;-62
2023/03/19 02:18:42;;;;;;;7.03;3.35;;;;;;;7.31;100.00;97015.16;5077092;28;20040;-61
2023/03/19 02:21:17;;;;;;;9.43;3.53;;;;;;;7.33;100.00;97018.41;5074255;28;20640;-62
2023/03/19 02:23:51;;;;;;;6.70;3.83;;;;;;;7.18;100.00;97020.81;5079252;28;20036;-61
2023/03/19 02:26:25;;;;;;;6.50;3.47;;;;;;;6.88;100.00;97034.22;5081652;28;20092;-61
2023/03/19 02:28:57;;;;;;;8.70;3.78;;;;;;;6.72;100.00;97045.69;5075037;28;20048;-61
2023/03/19 02:31:30;;;;;;;7.95;4.00;;;;;;;6.90;100.00;97042.84;5081931;28;20047;-61
2023/03/19 02:34:00;;;;;;;7.70;4.28;;;;;;;6.67;100.00;97041.00;5079281;28;20045;-61
2023/03/19 02:36:33;;;;;;;6.53;4.70;;;;;;;6.59;100.00;97050.25;5072032;28;20044;-61
2023/03/19 02:39:02;;;;;;;7.65;4.60;;;;;;;6.75;100.00;97050.63;5070933;28;20130;-60
2023/03/19 02:41:31;;;;;;;8.57;4.55;;;;;;;6.66;100.00;97052.81;5067581;28;20696;-61
2023/03/19 02:44:01;;;;;;;7.53;4.88;;;;;;;6.74;100.00;97054.34;5067245;28;20511;-61
2023/03/19 02:46:28;;;;;;;8.48;5.47;;;;;;;6.67;100.00;97053.66;5070453;28;20118;-62
2023/03/19 02:48:54;;;;;;;7.15;4.32;;;;;;;6.66;100.00;97054.72;5069591;28;20063;-61
2023/03/19 02:51:21;;;;;;;7.22;3.90;;;;;;;6.84;100.00;97051.88;5071051;28;20040;-61
2023/03/19 02:53:47;;;;;;;10.80;4.00;;;;;;;6.96;100.00;97045.69;5069410;28;20051;-61
2023/03/19 02:56:14;;;;;;;7.05;4.07;;;;;;;7.07;100.00;97036.75;5075360;28;20649;-61
2023/03/19 02:58:40;;;;;;;6.78;3.63;;;;;;;7.02;100.00;97028.56;5068236;28;20043;-62
2023/03/19 03:01:07;;;;;;;8.30;3.90;;;;;;;6.96;100.00;97029.53;5075128;28;20097;-62
2023/03/19 03:03:34;;;;;;;8.98;3.58;;;;;;;6.94;100.00;97039.69;5077103;28;20040;-61
2023/03/19 03:06:00;;;;;;;6.38;3.33;;;;;;;6.92;100.00;97039.13;5078681;28;20129;-62
2023/03/19 03:08:27;;;;;;;7.95;3.95;;;;;;;6.74;100.00;97038.19;5075110;28;20040;-62
2023/03/19 03:10:53;;;;;;;7.35;3.83;;;;;;;6.76;100.00;97045.00;5071646;28;20058;-61
2023/03/19 03:13:20;;;;;;;6.70;3.75;;;;;;;6.81;100.00;97038.09;5072849;28;20036;-61
2023/03/19 03:15:46;;;;;;;9.68;3.53;;;;;;;6.86;100.00;97039.00;5075152;28;20054;-62
2023/03/19 03:18:13;;;;;;;9.85;4.25;;;;;;;6.73;100.00;97034.69;5074910;28;20041;-62
2023/03/19 03:20:39;;;;;;;9.02;4.93;;;;;;;6.53;100.00;97040.44;5072785;28;20097;-62
2023/03/19 03:23:06;;;;;;;6.60;4.18;;;;;;;6.50;100.00;97041.69;5063789;28;20044;-62
2023/03/19 03:25:34;;;;;;;8.82;3.92;;;;;;;6.42;100.00;97054.69;5073194;28;20050;-62
2023/03/19 03:28:00;;;;;;;8.07;4.70;;;;;;;6.35;100.00;97074.44;5072374;28;20461;-62
2023/03/19 03:30:27;;;;;;;7.40;4.15;;;;;;;6.35;100.00;97076.31;5079468;28;20521;-62
2023/03/19 03:32:54;;;;;;;7.57;4.03;;;;;;;6.38;100.00;97079.34;5070369;28;20067;-62
2023/03/19 03:35:21;;;;;;;9.45;5.20;;;;;;;6.46;100.00;97077.38;5074937;28;20032;-62
2023/03/19 03:37:49;;;;;;;8.48;5.00;;;;;;;6.43;100.00;97078.69;5078144;28;20048;-61
2023/03/19 03:40:16;;;;;;;9.07;4.50;;;;;;;6.44;100.00;97080.31;5072172;28;20068;-62
2023/03/19 03:42:43;;;;;;;8.27;4.50;;;;;;;6.45;100.00;97087.31;5078568;28;20040;-62
2023/03/19 03:45:11;;;;;;;10.85;4.88;;;;;;;6.45;100.00;97083.81;5071904;28;20032;-61
2023/03/19 03:47:38;;;;;;;7.35;3.97;;;;;;;6.53;100.00;97082.66;5067066;28;20048;-62
2023/03/19 03:50:06;;;;;;;8.95;4.45;;;;;;;6.50;100.00;97092.81;5072264;28;20048;-62
2023/03/19 03:52:33;;;;;;;7.63;4.10;;;;;;;6.50;100.00;97092.00;5069332;28;20043;-62
2023/03/19 03:55:00;;;;;;;11.85;4.63;;;;;;;6.50;100.00;97097.38;5066400;28;20058;-62
2023/03/19 03:57:26;;;;;;;7.65;4.40;;;;;;;6.49;100.00;97104.63;5081060;28;20036;-62
2023/03/19 03:59:54;;;;;;;6.65;4.35;;;;;;;6.38;100.00;97094.69;5069044;28;20048;-62
2023/03/19 04:02:21;;;;;;;6.47;4.22;;;;;;;6.26;100.00;97089.28;5074961;28;20036;-61
2023/03/19 04:04:48;;;;;;;6.38;4.32;;;;;;;6.32;100.00;97093.75;5071667;28;20062;-61
2023/03/19 04:07:14;;;;;;;8.73;5.03;;;;;;;6.43;100.00;97102.06;5073550;28;20640;-62
2023/03/19 04:09:48;;;;;;;7.80;4.05;;;;;;;6.44;100.00;97112.59;5067969;28;20025;-61
2023/03/19 04:12:14;;;;;;;8.45;4.35;;;;;;;6.42;100.00;97105.78;5071583;28;20080;-62
2023/03/19 04:14:41;;;;;;;9.18;4.95;;;;;;;6.40;100.00;97105.19;5071083;28;20113;-62
2023/03/19 04:17:08;;;;;;;8.50;4.93;;;;;;;6.37;100.00;97106.47;5080916;28;20040;-62
2023/03/19 04:19:35;;;;;;;6.90;4.68;;;;;;;6.49;100.00;97106.50;5068542;28;20499;-61
2023/03/19 04:22:02;;;;;;;7.82;4.50;;;;;;;6.44;100.00;97099.13;5071015;28;20048;-62
2023/03/19 04:24:32;;;;;;;7.82;5.22;;;;;;;6.46;100.00;97098.91;5068505;28;21736;-62
2023/03/19 04:26:58;;;;;;;7.63;4.57;;;;;;;6.47;100.00;97105.91;5069576;28;20044;-62
2023/03/19 04:29:26;;;;;;;7.60;4.68;;;;;;;6.54;100.00;97109.31;5067198;28;20037;-62
2023/03/19 04:31:53;;;;;;;8.07;4.75;;;;;;;6.56;100.00;97114.47;5075077;28;20062;-62
2023/03/19 04:34:19;;;;;;;7.88;4.45;;;;;;;6.51;100.00;97115.16;5069465;28;20131;-63
2023/03/19 04:36:47;;;;;;;11.07;5.03;;;;;;;6.57;100.00;97114.25;5070462;28;20098;-62
2023/03/19 04:39:13;;;;;;;6.75;4.60;;;;;;;6.66;100.00;97109.31;5065117;28;20055;-62
2023/03/19 04:41:40;;;;;;;9.55;5.10;;;;;;;6.73;100.00;97103.81;5062499;28;20040;-61
2023/03/19 04:44:22;;;;;;;10.57;5.38;;;;;;;6.78;100.00;97103.94;5069642;28;20044;-61
2023/03/19 04:46:49;;;;;;;8.35;4.03;;;;;;;6.73;100.00;97095.75;5077323;28;20044;-61
2023/03/19 04:49:18;;;;;;;8.57;4.88;;;;;;;6.76;100.00;97098.81;5070262;28;20126;-61
2023/03/19 04:51:44;;;;;;;7.70;4.85;;;;;;;6.67;100.00;97099.41;5070631;28;20093;-61
2023/03/19 04:54:11;;;;;;;12.00;4.78;;;;;;;6.60;100.00;97103.00;5069749;28;21627;-61
2023/03/19 04:56:38;;;;;;;9.43;5.03;;;;;;;6.61;100.00;97104.66;5076414;28;20039;-62
2023/03/19 04:59:05;;;;;;;7.47;5.00;;;;;;;6.59;100.00;97109.44;5066035;28;20059;-61
2023/03/19 05:01:32;;;;;;;8.50;5.30;;;;;;;6.58;100.00;97110.50;5073045;28;20047;-62
2023/03/19 05:04:02;;;;;;;8.40;4.72;;;;;;;6.60;100.00;97113.75;5064398;28;20064;-61
2023/03/19 05:06:31;;;;;;;9.00;4.90;;;;;;;6.59;100.00;97120.19;5069917;28;20151;-61
2023/03/19 05:08:59;;;;;;;9.77;5.03;;;;;;;6.62;100.00;97119.75;5072040;28;20044;-61
2023/03/19 05:11:26;;;;;;;9.35;4.70;;;;;;;6.78;100.00;97114.69;5073419;28;20047;-61
2023/03/19 05:13:59;;;;;;;10.23;4.80;;;;;;;6.77;100.00;97096.94;5070870;28;20164;-61
2023/03/19 05:16:33;;;;;;;6.95;4.47;;;;;;;6.73;100.00;97093.91;5071426;28;20479;-61
2023/03/19 05:19:00;;;;;;;7.53;4.20;;;;;;;6.85;100.00;97101.97;5066128;28;20045;-61
2023/03/19 05:21:27;;;;;;;7.40;3.92;;;;;;;6.90;100.00;97107.44;5073215;28;20041;-61
2023/03/19 05:23:56;;;;;;;10.40;3.88;;;;;;;6.96;100.00;97091.44;5061967;28;20669;-61
2023/03/19 05:26:22;;;;;;;6.80;4.05;;;;;;;7.09;100.00;97095.75;5069124;28;20075;-62
2023/03/19 05:29:09;;;;;;;7.28;3.42;;;;;;;7.16;100.00;97091.06;5071862;28;20149;-62
2023/03/19 05:31:56;;;;;;;5.88;2.97;;;;;;;7.18;100.00;97096.22;5076045;28;20040;-61
2023/03/19 05:34:23;;;;;;;5.53;2.70;;;;;;;7.22;100.00;97092.78;5062995;28;20047;-62
2023/03/19 05:36:50;;;;;;;5.13;3.00;;;;;;;7.31;100.00;97090.56;5069964;28;20041;-61
2023/03/19 05:39:18;;;;;;;6.40;2.92;;;;;;;7.35;100.00;97098.97;5065814;28;20051;-61
2023/03/19 05:41:45;;;;;;;5.30;3.15;;;;;;;7.09;100.00;97098.44;5067932;28;20143;-61
2023/03/19 05:44:16;;;;;;;5.50;3.35;;;;;;;7.11;100.00;97099.03;5065776;28;20044;-62
2023/03/19 05:46:57;;;;;;;6.50;3.88;;;;;;;6.96;100.00;97100.31;5076379;28;20533;-62
2023/03/19 05:49:28;;;;;;;6.28;3.15;;;;;;;6.91;100.00;97108.28;5062560;28;20074;-62
2023/03/19 05:51:56;;;;;;;5.30;3.42;;;;;;;6.96;100.00;97100.31;5070972;28;20047;-62
2023/03/19 05:54:22;;;;;;;6.78;3.45;;;;;;;6.97;100.00;97099.25;5068750;28;20032;-63
2023/03/19 05:57:15;;;;;;;5.95;3.72;;;;;;;6.98;100.00;97097.38;5067925;28;20129;-61
2023/03/19 05:59:53;;;;;;;7.15;3.75;;;;;;;6.99;100.00;97099.03;5063878;28;20052;-61
2023/03/19 06:02:33;;;;;;;6.38;3.70;;;;;;;6.98;100.00;97108.16;5068352;28;20207;-62
2023/03/19 06:05:19;;;;;;;7.90;3.55;;;;;;;7.00;100.00;97114.94;5067339;28;20597;-62
2023/03/19 06:07:46;;;;;;;6.35;3.53;;;;;;;7.04;100.00;97112.59;5066933;28;20077;-62
2023/03/19 06:10:22;;;;;;;6.28;3.40;;;;;;;7.03;100.00;97119.88;5066013;28;20607;-62
2023/03/19 06:12:52;;;;;;;5.03;3.33;;;;;;;7.03;100.00;97121.72;5066064;28;20136;-62
2023/03/19 06:15:36;;;;;;;5.20;3.00;;;;;;;7.04;100.00;97123.34;5068659;28;20040;-61
2023/03/19 06:18:18;;;;;;;7.72;3.25;;;;;;;7.07;100.00;97127.47;5069454;28;20181;-62
2023/03/19 06:20:46;;;;;;;4.68;2.88;;;;;;;7.08;100.00;97129.09;5068690;28;20064;-61
2023/03/19 06:23:15;;;;;;;4.57;2.67;;;;;;;7.14;100.00;97126.28;5062160;28;20094;-61
2023/03/19 06:25:42;;;;;;;6.97;3.00;;;;;;;7.16;100.00;97129.56;5066736;28;20123;-63
2023/03/19 06:28:09;;;;;;;5.80;3.20;;;;;;;7.16;100.00;97126.84;5065378;28;20076;-61
2023/03/19 06:30:39;;;;;;;5.88;2.80;;;;;;;7.20;100.00;97129.91;5070148;28;20048;-61
2023/03/19 06:33:30;;;;;;;6.35;2.88;;;;;;;7.26;100.00;97117.38;5066198;28;20479;-61
2023/03/19 06:35:58;;;;;;;7.60;3.00;;;;;;;7.37;100.00;97123.81;5076729;28;20086;-61
2023/03/19 06:38:25;;;;;;;7.38;3.10;;;;;;;7.36;100.00;97122.97;5068929;28;20044;-61
2023/03/19 06:40:52;;;;;;;6.43;3.00;;;;;;;7.35;100.00;97115.97;5069759;28;20419;-62
2023/03/19 06:43:18;;;;;;;6.22;2.92;;;;;;;7.34;100.00;97118.88;5065333;28;20055;-61
2023/03/19 06:45:45;;;;;;;7.25;2.90;;;;;;;7.39;100.00;97122.50;5076689;28;20115;-45
2023/03/19 06:48:12;;;;;;;8.75;3.42;;;;;;;7.46;100.00;97125.06;5066425;28;20044;-50
2023/03/19 06:50:39;;;;;;;4.80;2.85;;;;;;;7.53;100.00;97122.25;5071059;28;20040;-48
2023/03/19 06:53:06;;;;;;;6.70;2.28;;;;;;;7.55;100.00;97125.50;5070428;28;20044;-49
2023/03/19 06:55:33;;;;;;;5.78;3.22;;;;;;;7.58;100.00;97125.03;5071076;28;20060;-49
2023/03/19 06:57:59;;;;;;;6.20;2.70;;;;;;;7.53;100.00;97123.03;5067338;28;20098;-47
2023/03/19 07:00:26;;;;;;;4.40;2.60;;;;;;;7.47;100.00;97118.63;5073116;28;20702;-48
2023/03/19 07:02:53;;;;;;;8.27;3.03;;;;;;;7.51;100.00;97132.44;5074511;28;20106;-47
2023/03/19 07:05:20;;;;;;;6.32;3.40;;;;;;;7.51;100.00;97132.44;5078055;28;20491;-47
2023/03/19 07:07:46;;;;;;;5.85;3.08;;;;;;;7.58;100.00;97122.34;5076484;28;20056;-48
2023/03/19 07:10:13;;;;;;;5.95;3.03;;;;;;;7.64;100.00;97123.25;5069534;28;20072;-60
2023/03/19 07:12:39;;;;;;;5.43;3.22;;;;;;;7.70;100.00;97132.28;5071258;28;20055;-61
2023/03/19 07:15:06;;;;;;;7.15;2.72;;;;;;;7.88;100.00;97137.47;5076233;28;20064;-61
2023/03/19 07:17:33;;;;;;;5.28;2.70;;;;;;;8.00;100.00;97132.03;5079556;28;20043;-60
2023/03/19 07:19:59;;;;;;;5.45;2.83;;;;;;;8.14;100.00;97137.16;5070122;28;20040;-62
2023/03/19 07:22:26;;;;;;;4.18;2.25;;;;;;;8.32;100.00;97144.19;5076510;28;20052;-61
2023/03/19 07:24:52;;;;;;;4.85;2.50;;;;;;;8.37;100.00;97144.28;5074971;28;20115;-60
2023/03/19 07:27:19;;;;;;;7.50;2.67;;;;;;;8.41;100.00;97150.03;5068069;28;20036;-61
2023/03/19 07:29:46;;;;;;;4.90;2.45;;;;;;;8.39;100.00;97150.25;5070850;28;20700;-61
2023/03/19 07:32:13;;;;;;;5.45;2.53;;;;;;;8.40;100.00;97151.09;5071100;28;20044;-62
2023/03/19 07:34:39;;;;;;;7.47;3.03;;;;;;;8.47;100.00;97146.34;5068599;28;20075;-61
2023/03/19 07:37:06;;;;;;;6.43;2.85;;;;;;;8.70;100.00;97155.41;5071050;28;20045;-61
2023/03/19 07:39:32;;;;;;;6.97;2.58;;;;;;;8.89;98.29;97155.97;5071659;28;20036;-61
2023/03/19 07:41:59;;;;;;;4.63;2.67;;;;;;;8.95;98.04;97154.97;5075537;28;20056;-61
2023/03/19 07:44:27;;;;;;;5.78;2.70;;;;;;;8.94;98.54;97150.63;5067300;28;20097;-61
2023/03/19 07:46:54;;;;;;;5.95;2.40;;;;;;;9.02;96.59;97148.56;5086381;28;20051;-61
2023/03/19 07:49:21;;;;;;;8.07;2.58;;;;;;;9.01;98.43;97149.63;5086413;28;20044;-61
2023/03/19 07:51:48;;;;;;;7.65;2.63;;;;;;;9.09;95.66;97143.81;5073149;28;20101;-60
2023/03/19 07:54:14;;;;;;;5.80;2.60;;;;;;;9.06;96.90;97144.31;5074229;28;20503;-61
2023/03/19 07:56:41;;;;;;;4.85;2.40;;;;;;;9.03;95.97;97152.94;5079448;28;20035;-60
2023/03/19 07:59:08;;;;;;;7.63;2.83;;;;;;;9.06;96.64;97141.59;5073944;28;20040;-60
2023/03/19 08:01:34;;;;;;;4.20;2.40;;;;;;;9.13;96.57;97144.97;5073810;28;20036;-60
2023/03/19 08:04:01;;;;;;;5.35;2.50;;;;;;;9.08;95.82;97153.00;5070428;28;20068;-61
2023/03/19 08:06:28;;;;;;;4.95;2.72;;;;;;;9.06;95.54;97150.53;5072045;28;20047;-59
2023/03/19 08:08:55;;;;;;;5.90;3.00;;;;;;;9.08;95.26;97145.72;5068380;28;20094;-60
2023/03/19 08:11:21;;;;;;;5.50;2.58;;;;;;;9.06;97.01;97155.94;5069497;28;20044;-60
2023/03/19 08:13:48;;;;;;;6.47;2.42;;;;;;;9.06;95.96;97153.22;5074937;28;20036;-60
2023/03/19 08:16:14;;;;;;;5.43;2.40;;;;;;;9.03;96.85;97153.72;5073856;28;20037;-60
2023/03/19 08:18:41;;;;;;;7.32;2.75;;;;;;;9.00;98.07;97156.09;5079091;28;20123;-60
2023/03/19 08:21:07;;;;;;;4.85;2.20;;;;;;;9.00;97.76;97148.00;5064398;28;20044;-60
2023/03/19 08:23:34;;;;;;;6.82;3.10;;;;;;;9.08;96.80;97148.41;5073244;28;20098;-60
2023/03/19 08:26:01;;;;;;;6.72;3.05;;;;;;;9.15;96.25;97148.25;5077777;28;20040;-60
2023/03/19 08:28:27;;;;;;;4.78;2.50;;;;;;;9.23;94.57;97157.81;5074025;28;20097;-60
2023/03/19 08:30:54;;;;;;;5.43;2.35;;;;;;;9.34;94.48;97161.47;5071772;28;20062;-60
2023/03/19 08:33:21;;;;;;;5.63;2.60;;;;;;;9.53;94.50;97155.75;5074907;28;20048;-60
2023/03/19 08:35:48;;;;;;;7.03;2.83;;;;;;;9.65;93.87;97161.06;5069469;28;20499;-61
2023/03/19 08:38:14;;;;;;;3.90;2.30;;;;;;;9.62;91.70;97156.97;5078937;28;20071;-60
2023/03/19 08:40:41;;;;;;;4.88;2.40;;;;;;;9.82;91.64;97164.50;5068202;28;20032;-61
2023/03/19 08:43:07;;;;;;;4.72;2.60;;;;;;;9.99;91.60;97159.00;5074723;28;20043;-60
2023/03/19 08:45:34;;;;;;;5.20;2.20;;;;;;;10.30;90.80;97155.81;5079317;28;20063;-60
2023/03/19 08:48:01;;;;;;;5.05;2.60;;;;;;;10.50;89.28;97152.53;5072446;28;20052;-60
2023/03/19 08:50:27;;;;;;;5.53;2.35;;;;;;;10.67;88.22;97162.41;5073540;28;20052;-61
2023/03/19 08:52:55;;;;;;;5.22;2.42;;;;;;;10.62;87.83;97159.66;5071255;28;20060;-61
2023/03/19 08:55:21;;;;;;;6.43;2.58;;;;;;;10.63;86.35;97159.41;5075912;28;20041;-61
2023/03/19 08:57:48;;;;;;;8.18;2.92;;;;;;;10.54;85.09;97163.63;5069266;28;20605;-60
2023/03/19 09:00:15;;;;;;;4.45;2.13;;;;;;;10.64;84.03;97162.91;5072164;28;20086;-61
2023/03/19 09:02:41;;;;;;;4.95;2.17;;;;;;;10.74;83.34;97170.31;5076785;28;20071;-61
2023/03/19 09:05:08;;;;;;;7.53;2.90;;;;;;;10.99;83.29;97169.69;5071797;28;20088;-60
2023/03/19 09:07:35;;;;;;;4.18;2.40;;;;;;;11.12;82.40;97167.63;5070547;28;20988;-60
2023/03/19 09:10:01;;;;;;;4.40;2.30;;;;;;;11.17;82.91;97160.34;5075410;28;20048;-60
2023/03/19 09:12:28;;;;;;;5.25;2.20;;;;;;;10.96;79.82;97162.09;5070329;28;20705;-60
2023/03/19 09:14:55;;;;;;;4.75;2.00;;;;;;;10.97;80.21;97166.44;5070689;28;20172;-61
2023/03/19 09:17:21;;;;;;;8.85;2.80;;;;;;;11.13;80.83;97166.56;5069296;28;20048;-61
2023/03/19 09:19:48;;;;;;;7.13;2.53;;;;;;;11.32;81.12;97165.03;5067830;28;20153;-60
2023/03/19 09:22:14;;;;;;;4.53;2.08;;;;;;;11.54;83.15;97166.00;5072368;28;20078;-61
2023/03/19 09:24:41;;;;;;;4.60;2.25;;;;;;;11.75;81.49;97166.88;5073330;28;20076;-61
2023/03/19 09:27:08;;;;;;;5.65;2.00;;;;;;;11.97;79.34;97171.31;5070899;28;20104;-60
2023/03/19 09:29:34;;;;;;;5.03;2.22;;;;;;;12.11;74.21;97177.09;5073080;28;20047;-61
2023/03/19 09:32:01;;;;;;;7.97;2.47;;;;;;;12.05;75.29;97176.25;5066976;28;20036;-61
2023/03/19 09:34:28;;;;;;;4.47;2.13;;;;;;;11.83;75.71;97176.41;5069473;28;20052;-61
2023/03/19 09:36:54;;;;;;;5.38;2.17;;;;;;;11.95;77.64;97173.50;5071994;28;20040;-60
2023/03/19 09:39:21;;;;;;;4.10;1.98;;;;;;;12.04;73.48;97168.34;5071356;28;20063;-60
2023/03/19 09:42:18;;;;;;;4.97;2.10;;;;;;;11.80;74.01;97169.63;5075394;28;20044;-60
2023/03/19 09:44:45;;;;;;;5.15;1.98;;;;;;;11.65;75.32;97156.81;5040082;28;20840;-61
2023/03/19 09:47:24;;;;;;;6.05;2.05;;;;;;;11.63;76.82;97164.41;5068356;28;20116;-60
2023/03/19 09:49:56;;;;;;;5.55;2.35;;;;;;;11.63;75.85;97161.69;5072748;28;20574;-61
2023/03/19 09:52:50;;;;;;;7.38;2.45;;;;;;;11.57;77.34;97152.72;5063169;28;20126;-61
2023/03/19 09:55:47;;;;;;;4.03;1.95;;;;;;;11.66;76.97;97155.75;5073918;28;20123;-61
2023/03/19 09:58:26;;;;;;;7.35;2.15;;;;;;;11.83;76.96;97149.28;5069302;28;20055;-60
2023/03/19 10:00:54;;;;;;;6.20;2.28;;;;;;;12.09;75.01;97147.50;5066653;28;20488;-61
2023/03/19 10:03:47;;;;;;;4.47;2.58;;;;;;;12.44;71.83;97138.88;5066423;28;20610;-60
2023/03/19 10:06:32;;;;;;;6.95;2.58;;;;;;;12.53;70.26;97145.41;5039535;28;20052;-62
2023/03/19 10:09:23;;;;;;;4.25;1.90;;;;;;;12.60;69.93;97143.25;5072609;28;20512;-61
2023/03/19 10:12:18;;;;;;;4.70;2.40;;;;;;;12.79;71.16;97147.31;5066768;28;20041;-61
2023/03/19 10:15:14;;;;;;;4.60;1.80;;;;;;;13.00;71.43;97148.13;5069920;28;20484;-60
2023/03/19 10:18:04;;;;;;;4.10;1.95;;;;;;;13.20;67.03;97141.84;5078636;28;20156;-61
2023/03/19 10:20:49;;;;;;;4.43;1.80;;;;;;;13.29;65.54;97154.88;5081291;28;20055;-60
2023/03/19 10:23:38;;;;;;;3.60;1.70;;;;;;;13.41;65.42;97144.50;5075895;28;20059;-61
2023/03/19 10:26:10;;;;;;;7.47;2.08;;;;;;;13.53;65.47;97138.81;5077651;28;20039;-61
2023/03/19 10:28:40;;;;;;;5.47;1.83;;;;;;;13.67;64.46;97133.56;5073408;28;20044;-61
2023/03/19 10:31:36;;;;;;;4.85;2.08;;;;;;;13.85;65.61;97142.22;5076549;28;20128;-62
2023/03/19 10:34:30;;;;;;;4.88;1.98;;;;;;;14.05;64.61;97144.03;5076302;28;20048;-61
2023/03/19 10:37:19;;;;;;;3.72;1.52;;;;;;;13.97;60.34;97133.75;5073215;28;20662;-60
2023/03/19 10:39:48;;;;;;;5.00;2.15;;;;;;;13.91;61.25;97132.94;5070354;28;20043;-60
2023/03/19 10:42:42;;;;;;;5.13;1.92;;;;;;;13.94;60.29;97131.56;5070888;28;20550;-59
2023/03/19 10:45:23;;;;;;;4.80;1.88;;;;;;;14.16;62.59;97131.97;5071267;28;20041;-60
2023/03/19 10:47:51;;;;;;;4.57;1.80;;;;;;;14.28;61.49;97126.22;5072312;28;20036;-61
2023/03/19 10:50:26;;;;;;;4.50;1.60;;;;;;;14.29;60.58;97124.28;5066764;28;20044;-60
2023/03/19 10:53:16;;;;;;;5.72;1.90;;;;;;;14.36;57.62;97121.25;5074552;28;20115;-60
2023/03/19 10:55:54;;;;;;;2.55;1.30;;;;;;;14.41;55.55;97126.69;5060163;28;20074;-60
2023/03/19 10:58:29;;;;;;;5.18;1.60;;;;;;;14.17;54.26;97125.47;5076455;28;20093;-60
2023/03/19 11:01:06;;;;;;;4.32;1.75;;;;;;;14.39;55.66;97123.41;5072459;28;20423;-60
2023/03/19 11:04:00;;;;;;;6.90;1.77;;;;;;;14.19;55.36;97125.16;5066563;28;20052;-61
2023/03/19 11:06:31;;;;;;;3.13;1.25;;;;;;;14.37;56.20;97118.25;5073597;28;20862;-60
2023/03/19 11:09:07;;;;;;;4.53;1.50;;;;;;;14.11;56.51;97120.31;5072066;28;20067;-52
2023/03/19 11:11:46;;;;;;;4.32;1.42;;;;;;;14.20;57.36;97112.38;5072424;28;20064;-50
2023/03/19 11:14:19;;;;;;;6.13;1.77;;;;;;;14.26;56.79;97112.03;5069899;28;20062;-48
2023/03/19 11:17:01;;;;;;;3.65;1.73;;;;;;;14.19;55.37;97108.81;5070151;28;20407;-49
2023/03/19 11:19:41;;;;;;;5.03;1.50;;;;;;;14.35;56.52;97109.56;5068878;28;20052;-53
2023/03/19 11:22:11;;;;;;;4.05;1.58;;;;;;;14.38;55.64;97108.97;5072973;28;20513;-60
2023/03/19 11:24:39;;;;;;;4.50;1.70;;;;;;;14.37;55.07;97101.91;5070070;28;20053;-60
2023/03/19 11:27:08;;;;;;;4.93;2.08;;;;;;;14.52;56.53;97111.06;5069758;28;20507;-61
2023/03/19 11:29:40;;;;;;;3.67;1.30;;;;;;;14.68;56.44;97103.56;5076611;28;20041;-61
2023/03/19 11:32:38;;;;;;;3.03;1.33;;;;;;;14.82;55.47;97101.03;5078576;28;20683;-61
2023/03/19 11:35:20;;;;;;;6.00;1.70;;;;;;;14.93;58.18;97099.81;5081166;28;20059;-62
2023/03/19 11:37:55;;;;;;;4.35;1.58;;;;;;;14.78;59.55;97105.44;5070964;28;20083;-61
2023/03/19 11:40:36;;;;;;;5.45;2.45;;;;;;;14.82;59.36;97103.75;5070574;28;20063;-62
2023/03/19 11:43:37;;;;;;;4.68;2.20;;;;;;;14.50;59.52;97105.06;5066578;28;20115;-61
2023/03/19 11:46:28;;;;;;;4.63;2.05;;;;;;;14.44;59.94;97102.41;5076913;28;20050;-61
2023/03/19 11:49:37;;;;;;;6.45;1.80;;;;;;;14.53;60.08;97096.34;5073523;28;20086;-60
2023/03/19 11:52:15;;;;;;;5.93;2.33;;;;;;;14.32;62.53;97099.22;4983738;28;20085;-61
2023/03/19 11:54:50;;;;;;;7.22;2.05;;;;;;;14.15;63.50;97088.69;4985803;28;20053;-60